Time;durP1;ratioP1;P1;durP2;ratioP2;P2;SDS_P1;SDS_P2;PMS_P1;PMS_P2;Temp;Humidity;BMP_temperature;BMP_pressure;BME280_temperature;BME280_humidity;BME280_pressure;Samples;Min_cycle;Max_cycle;Signal;HPM_P1;HPM_P2
2022/10/12 00:01:10;;;;;;;8.40;3.90;;;;;;;;;;5134474;27;20415;-70
2022/10/12 00:03:36;;;;;;;20.80;3.77;;;;;;;;;;5115815;28;20419;-70
2022/10/12 00:06:05;;;;;;;13.30;3.67;;;;;;;;;;5134161;28;20471;-71
2022/10/12 00:08:31;;;;;;;9.63;3.20;;;;;;;;;;5134339;28;20882;-71
2022/10/12 00:10:57;;;;;;;10.07;4.20;;;;;;;;;;5134347;28;20412;-70
2022/10/12 00:13:24;;;;;;;8.03;3.43;;;;;;;;;;5115842;28;20925;-71
2022/10/12 00:15:49;;;;;;;5.33;3.40;;;;;;;;;;5134214;28;20459;-71
2022/10/12 00:18:15;;;;;;;10.03;3.70;;;;;;;;;;5134253;28;20459;-71
2022/10/12 00:20:41;;;;;;;10.27;3.57;;;;;;;;;;5134203;28;20503;-71
2022/10/12 00:23:07;;;;;;;5.27;3.83;;;;;;;;;;5134157;28;20807;-71
2022/10/12 00:25:37;;;;;;;8.20;3.50;;;;;;;;;;5134187;28;20460;-71
2022/10/12 00:28:03;;;;;;;8.70;3.70;;;;;;;;;;5115654;28;20430;-71
2022/10/12 00:30:29;;;;;;;5.27;3.23;;;;;;;;;;5134031;28;20407;-71
2022/10/12 00:32:56;;;;;;;9.83;3.37;;;;;;;;;;5134094;28;20408;-71
2022/10/12 00:35:22;;;;;;;11.87;3.50;;;;;;;;;;5133840;28;20909;-72
2022/10/12 00:37:48;;;;;;;7.93;3.50;;;;;;;;;;5134011;28;20490;-71
2022/10/12 00:40:14;;;;;;;8.73;3.53;;;;;;;;;;5134004;28;20476;-71
2022/10/12 00:42:40;;;;;;;9.07;3.70;;;;;;;;;;5133934;28;20502;-70
2022/10/12 00:45:06;;;;;;;4.67;3.53;;;;;;;;;;5133905;28;20408;-71
2022/10/12 00:47:32;;;;;;;8.47;3.30;;;;;;;;;;5133891;28;20400;-71
2022/10/12 00:50:15;;;;;;;8.53;3.23;;;;;;;;;;5133929;28;20741;-71
2022/10/12 00:52:44;;;;;;;7.00;3.37;;;;;;;;;;5133877;27;20392;-71
2022/10/12 00:55:12;;;;;;;14.63;3.70;;;;;;;;;;5137429;27;20467;-71
2022/10/12 00:57:38;;;;;;;8.53;3.70;;;;;;;;;;5119243;27;20423;-71
2022/10/12 01:00:06;;;;;;;8.47;3.20;;;;;;;;;;5137770;27;20411;-71
2022/10/12 01:02:32;;;;;;;8.93;3.80;;;;;;;;;;5137622;27;20463;-71
2022/10/12 01:04:59;;;;;;;4.97;3.50;;;;;;;;;;5137602;27;20543;-71
2022/10/12 01:07:25;;;;;;;6.00;3.57;;;;;;;;;;5137622;27;20399;-71
2022/10/12 01:09:51;;;;;;;9.17;3.70;;;;;;;;;;5137578;27;20499;-71
2022/10/12 01:12:17;;;;;;;4.37;3.63;;;;;;;;;;5137491;27;20450;-72
2022/10/12 01:14:43;;;;;;;8.80;4.53;;;;;;;;;;5137386;27;20466;-72
2022/10/12 01:17:12;;;;;;;5.33;3.93;;;;;;;;;;5137403;27;20403;-71
2022/10/12 01:19:38;;;;;;;11.87;4.77;;;;;;;;;;5137334;27;20911;-71
2022/10/12 01:22:08;;;;;;;9.13;4.00;;;;;;;;;;5137318;27;20403;-71
2022/10/12 01:24:46;;;;;;;8.00;3.33;;;;;;;;;;5137292;27;20403;-71
2022/10/12 01:27:31;;;;;;;12.87;4.17;;;;;;;;;;5137097;27;20463;-72
2022/10/12 01:30:16;;;;;;;9.53;3.93;;;;;;;;;;5137229;27;20403;-72
2022/10/12 01:33:00;;;;;;;14.67;3.77;;;;;;;;;;5137121;27;20436;-71
2022/10/12 01:35:35;;;;;;;8.90;3.83;;;;;;;;;;5118536;27;20477;-71
2022/10/12 01:38:04;;;;;;;6.27;3.87;;;;;;;;;;5118572;27;20419;-71
2022/10/12 01:40:39;;;;;;;11.00;4.20;;;;;;;;;;5136997;27;20455;-71
2022/10/12 01:43:05;;;;;;;11.33;3.97;;;;;;;;;;5118455;27;20881;-71
2022/10/12 01:45:31;;;;;;;6.10;4.03;;;;;;;;;;5136943;27;20408;-71
2022/10/12 01:47:57;;;;;;;11.20;4.17;;;;;;;;;;5118765;27;20407;-71
2022/10/12 01:50:27;;;;;;;17.03;4.33;;;;;;;;;;5136791;27;20945;-72
2022/10/12 01:53:05;;;;;;;11.40;3.77;;;;;;;;;;5136695;27;20897;-72
2022/10/12 01:55:49;;;;;;;17.13;4.17;;;;;;;;;;5136543;27;20886;-72
2022/10/12 01:58:15;;;;;;;8.93;3.80;;;;;;;;;;5136618;27;20409;-72
2022/10/12 02:00:43;;;;;;;17.67;4.30;;;;;;;;;;5136543;27;20490;-71
2022/10/12 02:03:20;;;;;;;13.27;4.30;;;;;;;;;;5136550;27;20409;-71
2022/10/12 02:06:01;;;;;;;10.13;4.00;;;;;;;;;;5136478;27;20492;-71
2022/10/12 02:08:27;;;;;;;7.43;4.20;;;;;;;;;;5136470;27;20870;-71
2022/10/12 02:10:57;;;;;;;9.60;5.13;;;;;;;;;;5136357;27;20482;-71
2022/10/12 02:13:24;;;;;;;10.90;4.40;;;;;;;;;;5136336;27;20439;-71
2022/10/12 02:15:50;;;;;;;7.27;4.30;;;;;;;;;;5136294;27;20470;-71
2022/10/12 02:18:17;;;;;;;12.53;5.20;;;;;;;;;;5136209;27;20407;-71
2022/10/12 02:20:45;;;;;;;14.17;4.63;;;;;;;;;;5117695;27;20764;-71
2022/10/12 02:23:11;;;;;;;10.90;4.57;;;;;;;;;;5136392;27;20452;-72
2022/10/12 02:25:38;;;;;;;9.57;4.67;;;;;;;;;;5136217;27;20411;-71
2022/10/12 02:28:09;;;;;;;6.63;4.40;;;;;;;;;;5136088;27;20423;-72
2022/10/12 02:30:37;;;;;;;11.27;5.00;;;;;;;;;;5135990;27;20395;-72
2022/10/12 02:33:09;;;;;;;12.57;4.73;;;;;;;;;;5135933;27;20419;-71
2022/10/12 02:35:38;;;;;;;10.07;4.37;;;;;;;;;;5135805;27;20910;-71
2022/10/12 02:38:12;;;;;;;12.83;4.73;;;;;;;;;;5135858;27;20407;-71
2022/10/12 02:40:42;;;;;;;17.57;4.90;;;;;;;;;;5135798;27;20814;-71
2022/10/12 02:43:15;;;;;;;13.70;5.57;;;;;;;;;;5117323;27;20514;-71
2022/10/12 02:45:43;;;;;;;17.47;5.63;;;;;;;;;;5135689;27;20462;-71
2022/10/12 02:48:10;;;;;;;11.10;5.17;;;;;;;;;;5117207;27;20423;-72
2022/10/12 02:50:37;;;;;;;18.57;6.07;;;;;;;;;;5135586;27;20403;-71
2022/10/12 02:53:04;;;;;;;13.77;6.17;;;;;;;;;;5135641;27;20441;-71
2022/10/12 02:55:30;;;;;;;14.83;5.83;;;;;;;;;;5135456;27;20462;-71
2022/10/12 02:57:56;;;;;;;15.37;6.03;;;;;;;;;;5135302;27;20414;-71
2022/10/12 03:00:22;;;;;;;15.00;5.80;;;;;;;;;;5117047;27;20510;-70
2022/10/12 03:02:48;;;;;;;9.13;6.00;;;;;;;;;;5135318;27;20454;-71
2022/10/12 03:05:14;;;;;;;13.77;6.30;;;;;;;;;;5135154;27;20811;-72
2022/10/12 03:07:40;;;;;;;21.40;6.40;;;;;;;;;;5135303;27;20549;-71
2022/10/12 03:10:06;;;;;;;13.40;6.57;;;;;;;;;;5135171;27;20507;-71
2022/10/12 03:12:32;;;;;;;13.60;5.93;;;;;;;;;;5135079;27;20500;-72
2022/10/12 03:14:58;;;;;;;17.37;6.63;;;;;;;;;;5135093;27;20531;-72
2022/10/12 03:17:24;;;;;;;12.60;6.40;;;;;;;;;;5134519;27;20404;-71
2022/10/12 03:19:50;;;;;;;15.57;6.77;;;;;;;;;;5116645;27;20472;-71
2022/10/12 03:22:16;;;;;;;12.17;6.10;;;;;;;;;;5116589;27;20419;-71
2022/10/12 03:24:42;;;;;;;15.60;7.23;;;;;;;;;;5134925;27;20419;-71
2022/10/12 03:27:08;;;;;;;17.67;7.70;;;;;;;;;;5134928;27;20490;-71
2022/10/12 03:29:34;;;;;;;17.80;6.80;;;;;;;;;;5116460;27;20427;-71
2022/10/12 03:32:00;;;;;;;15.77;6.63;;;;;;;;;;5134845;27;20411;-71
2022/10/12 03:34:26;;;;;;;6.83;6.13;;;;;;;;;;5134721;27;20997;-71
2022/10/12 03:36:52;;;;;;;21.70;7.63;;;;;;;;;;5134857;27;20879;-70
2022/10/12 03:39:18;;;;;;;15.60;7.00;;;;;;;;;;5116277;27;20756;-70
2022/10/12 03:41:44;;;;;;;19.73;7.70;;;;;;;;;;5134615;27;20909;-70
2022/10/12 03:44:10;;;;;;;19.60;8.00;;;;;;;;;;5134698;27;20924;-71
2022/10/12 03:46:36;;;;;;;13.63;6.80;;;;;;;;;;5134629;27;20893;-71
2022/10/12 03:49:02;;;;;;;20.47;7.83;;;;;;;;;;5134592;27;20471;-71
2022/10/12 03:51:27;;;;;;;21.53;7.67;;;;;;;;;;5134572;27;20399;-71
2022/10/12 03:53:53;;;;;;;16.97;6.93;;;;;;;;;;5134599;27;20445;-71
2022/10/12 03:56:19;;;;;;;12.63;6.83;;;;;;;;;;5134498;27;20411;-71
2022/10/12 03:58:46;;;;;;;16.63;7.07;;;;;;;;;;5134416;27;20415;-71
2022/10/12 04:01:12;;;;;;;13.40;6.60;;;;;;;;;;5134683;27;20399;-71
2022/10/12 04:03:38;;;;;;;20.77;7.20;;;;;;;;;;5134460;27;20866;-71
2022/10/12 04:06:04;;;;;;;23.13;7.30;;;;;;;;;;5115835;28;21008;-71
2022/10/12 04:08:30;;;;;;;19.73;8.10;;;;;;;;;;5134362;28;20396;-71
2022/10/12 04:10:56;;;;;;;22.00;9.50;;;;;;;;;;5134397;28;20438;-71
2022/10/12 04:13:22;;;;;;;20.97;8.57;;;;;;;;;;5134271;28;20407;-71
2022/10/12 04:15:48;;;;;;;21.60;9.40;;;;;;;;;;5134236;28;20459;-71
2022/10/12 04:18:14;;;;;;;27.10;10.00;;;;;;;;;;5134221;28;20415;-71
2022/10/12 04:20:40;;;;;;;31.63;9.43;;;;;;;;;;5134271;28;20502;-71
2022/10/12 04:23:06;;;;;;;24.90;9.33;;;;;;;;;;5134199;28;20400;-71
2022/10/12 04:25:32;;;;;;;27.47;9.53;;;;;;;;;;5134263;28;20588;-71
2022/10/12 04:27:58;;;;;;;21.40;9.40;;;;;;;;;;5134359;27;20502;-71
2022/10/12 04:30:24;;;;;;;29.80;9.67;;;;;;;;;;5138294;27;20871;-71
2022/10/12 04:32:51;;;;;;;28.40;9.10;;;;;;;;;;5138282;27;20417;-70
2022/10/12 04:35:17;;;;;;;28.50;9.80;;;;;;;;;;5138147;27;20478;-71
2022/10/12 04:37:43;;;;;;;24.30;9.70;;;;;;;;;;5119802;27;20419;-70
2022/10/12 04:40:09;;;;;;;33.53;9.77;;;;;;;;;;5138105;27;20407;-71
2022/10/12 04:42:35;;;;;;;31.60;9.37;;;;;;;;;;5138019;27;20449;-71
2022/10/12 04:45:01;;;;;;;23.03;10.03;;;;;;;;;;5119534;27;20514;-72
2022/10/12 04:47:27;;;;;;;23.40;9.60;;;;;;;;;;5137975;27;20418;-71
2022/10/12 04:49:52;;;;;;;29.67;10.57;;;;;;;;;;5137988;27;20503;-71
2022/10/12 04:52:18;;;;;;;39.47;10.50;;;;;;;;;;5137870;27;20456;-71
2022/10/12 04:54:44;;;;;;;29.40;11.13;;;;;;;;;;5119384;27;20473;-71
2022/10/12 04:57:10;;;;;;;44.20;12.33;;;;;;;;;;5119388;27;20819;-70
2022/10/12 04:59:36;;;;;;;37.33;11.97;;;;;;;;;;5137809;27;20834;-71
2022/10/12 05:02:02;;;;;;;38.53;11.50;;;;;;;;;;5138010;27;20411;-72
2022/10/12 05:04:28;;;;;;;32.33;11.17;;;;;;;;;;5137665;27;20500;-72
2022/10/12 05:06:54;;;;;;;37.87;12.40;;;;;;;;;;5137812;27;20498;-72
2022/10/12 05:09:20;;;;;;;27.60;10.77;;;;;;;;;;5137697;27;20441;-72
2022/10/12 05:11:46;;;;;;;37.33;10.57;;;;;;;;;;5137537;27;20403;-72
2022/10/12 05:14:12;;;;;;;40.77;12.53;;;;;;;;;;5137461;27;20530;-72
2022/10/12 05:16:38;;;;;;;48.93;13.70;;;;;;;;;;5137461;27;20830;-72
2022/10/12 05:19:04;;;;;;;33.37;11.47;;;;;;;;;;5137365;27;20426;-72
2022/10/12 05:21:30;;;;;;;21.03;10.33;;;;;;;;;;5137465;27;20429;-72
2022/10/12 05:23:56;;;;;;;27.23;10.97;;;;;;;;;;5137253;27;20414;-72
2022/10/12 05:26:22;;;;;;;32.63;10.43;;;;;;;;;;5137259;27;20400;-71
2022/10/12 05:28:48;;;;;;;28.57;10.63;;;;;;;;;;5139991;27;20506;-72
2022/10/12 05:31:14;;;;;;;33.80;11.87;;;;;;;;;;5140337;27;20407;-72
2022/10/12 05:33:40;;;;;;;33.93;12.20;;;;;;;;;;5137654;27;20431;-71
2022/10/12 05:36:06;;;;;;;44.50;19.13;;;;;;;;;;5137201;27;20506;-71
2022/10/12 05:38:32;;;;;;;56.67;28.90;;;;;;;;;;5137119;27;20403;-71
2022/10/12 05:40:58;;;;;;;37.30;15.70;;;;;;;;;;5136389;27;20886;-71
2022/10/12 05:43:24;;;;;;;30.40;10.70;;;;;;;;;;5136877;27;20411;-70
2022/10/12 05:45:50;;;;;;;30.43;10.57;;;;;;;;;;5136943;27;20399;-72
2022/10/12 05:48:16;;;;;;;31.13;10.10;;;;;;;;;;5136877;27;20439;-71
2022/10/12 05:50:42;;;;;;;31.43;11.10;;;;;;;;;;5136696;27;20990;-72
2022/10/12 05:53:08;;;;;;;35.03;11.37;;;;;;;;;;5136731;27;20400;-71
2022/10/12 05:55:34;;;;;;;38.13;11.27;;;;;;;;;;5136627;27;20470;-71
2022/10/12 05:58:00;;;;;;;37.83;12.10;;;;;;;;;;5136612;27;20412;-70
2022/10/12 06:00:26;;;;;;;45.13;21.57;;;;;;;;;;5118130;27;20515;-71
2022/10/12 06:02:52;;;;;;;51.90;12.00;;;;;;;;;;5136510;27;20416;-74
2022/10/12 06:05:18;;;;;;;33.43;12.03;;;;;;;;;;5117752;27;20604;-73
2022/10/12 06:07:44;;;;;;;39.63;12.67;;;;;;;;;;5136409;27;20407;-73
2022/10/12 06:10:11;;;;;;;37.03;12.93;;;;;;;;;;5118040;27;20914;-74
2022/10/12 06:12:37;;;;;;;37.30;12.80;;;;;;;;;;5136374;27;20422;-72
2022/10/12 06:15:04;;;;;;;42.10;12.57;;;;;;;;;;5136298;27;21081;-73
2022/10/12 06:17:30;;;;;;;44.53;13.27;;;;;;;;;;5136258;27;20403;-74
2022/10/12 06:19:56;;;;;;;40.23;13.10;;;;;;;;;;5136127;27;20932;-74
2022/10/12 06:22:22;;;;;;;53.83;14.13;;;;;;;;;;5136228;27;20764;-71
2022/10/12 06:24:48;;;;;;;50.10;14.40;;;;;;;;;;5117663;27;20412;-72
2022/10/12 06:27:16;;;;;;;66.50;17.57;;;;;;;;;;5135959;27;20890;-70
2022/10/12 06:29:42;;;;;;;55.53;16.27;;;;;;;;;;5136032;27;20884;-71
2022/10/12 06:32:08;;;;;;;52.53;17.83;;;;;;;;;;5135982;27;20410;-71
2022/10/12 06:34:34;;;;;;;73.80;19.90;;;;;;;;;;5117460;27;20467;-70
2022/10/12 06:37:00;;;;;;;68.57;18.83;;;;;;;;;;5135804;27;20402;-71
2022/10/12 06:39:26;;;;;;;57.87;18.80;;;;;;;;;;5135744;27;20414;-71
2022/10/12 06:41:53;;;;;;;63.33;18.53;;;;;;;;;;5135713;27;20396;-72
2022/10/12 06:44:21;;;;;;;60.60;16.77;;;;;;;;;;5135755;27;20431;-72
2022/10/12 06:46:47;;;;;;;47.43;16.13;;;;;;;;;;5135740;27;20419;-71
2022/10/12 06:49:13;;;;;;;54.43;18.00;;;;;;;;;;5135461;27;20403;-71
2022/10/12 06:51:39;;;;;;;43.33;16.70;;;;;;;;;;5134686;27;20411;-72
2022/10/12 06:54:05;;;;;;;52.90;17.10;;;;;;;;;;5135450;27;21005;-72
2022/10/12 06:56:31;;;;;;;56.73;17.50;;;;;;;;;;5135511;27;20403;-71
2022/10/12 06:58:57;;;;;;;47.80;17.20;;;;;;;;;;5135402;27;20407;-70
2022/10/12 07:01:23;;;;;;;46.57;16.90;;;;;;;;;;5135410;27;20408;-70
2022/10/12 07:03:49;;;;;;;53.93;17.50;;;;;;;;;;5135222;27;20520;-70
2022/10/12 07:06:15;;;;;;;41.97;17.20;;;;;;;;;;5135367;27;20439;-70
2022/10/12 07:08:41;;;;;;;55.70;17.90;;;;;;;;;;5135407;27;20398;-70
2022/10/12 07:11:08;;;;;;;46.87;18.40;;;;;;;;;;5135308;27;20396;-70
2022/10/12 07:13:35;;;;;;;39.10;15.93;;;;;;;;;;5116638;27;20808;-70
2022/10/12 07:16:00;;;;;;;43.70;16.30;;;;;;;;;;5135038;27;20525;-69
2022/10/12 07:18:27;;;;;;;46.20;17.30;;;;;;;;;;5135005;27;20495;-68
2022/10/12 07:20:56;;;;;;;45.43;15.97;;;;;;;;;;5135089;27;20408;-67
2022/10/12 07:23:22;;;;;;;46.37;17.43;;;;;;;;;;5135088;27;20380;-67
2022/10/12 07:25:52;;;;;;;91.90;58.37;;;;;;;;;;5135022;27;20756;-71
2022/10/12 07:28:18;;;;;;;40.40;21.23;;;;;;;;;;5134827;27;20410;-71
2022/10/12 07:30:44;;;;;;;47.83;20.83;;;;;;;;;;5134870;27;20396;-71
2022/10/12 07:33:10;;;;;;;46.40;20.13;;;;;;;;;;5134781;27;20399;-73
2022/10/12 07:35:36;;;;;;;41.67;18.87;;;;;;;;;;5134725;27;20464;-72
2022/10/12 07:38:02;;;;;;;50.00;19.47;;;;;;;;;;5134788;27;20590;-72
2022/10/12 07:40:28;;;;;;;43.07;18.50;;;;;;;;;;5134837;27;20433;-71
2022/10/12 07:42:55;;;;;;;49.57;19.83;;;;;;;;;;5134563;27;20898;-69
2022/10/12 07:45:21;;;;;;;50.27;22.93;;;;;;;;;;5116132;27;20423;-70
2022/10/12 07:47:47;;;;;;;50.77;20.87;;;;;;;;;;5134616;27;20749;-70
2022/10/12 07:50:13;;;;;;;40.63;19.10;;;;;;;;;;5134595;27;20411;-70
2022/10/12 07:52:39;;;;;;;47.00;19.00;;;;;;;;;;5134804;27;20408;-70
2022/10/12 07:55:05;;;;;;;41.37;18.67;;;;;;;;;;5134399;27;20567;-70
2022/10/12 07:57:31;;;;;;;50.57;20.43;;;;;;;;;;5134443;27;20408;-70
2022/10/12 07:59:57;;;;;;;47.23;19.80;;;;;;;;;;5134465;27;20486;-70
2022/10/12 08:02:23;;;;;;;47.60;20.43;;;;;;;;;;5134207;27;20403;-71
2022/10/12 08:04:49;;;;;;;41.17;19.77;;;;;;;;;;5133992;27;20539;-69
2022/10/12 08:07:15;;;;;;;48.77;21.77;;;;;;;;;;5134354;27;20768;-70
2022/10/12 08:09:41;;;;;;;42.07;21.83;;;;;;;;;;5115838;28;20409;-73
2022/10/12 08:12:09;;;;;;;41.10;19.40;;;;;;;;;;5134240;28;20396;-72
2022/10/12 08:14:35;;;;;;;51.40;21.30;;;;;;;;;;5134282;28;20458;-72
2022/10/12 08:17:01;;;;;;;41.17;20.10;;;;;;;;;;5134293;28;20748;-70
2022/10/12 08:19:27;;;;;;;44.97;20.97;;;;;;;;;;5134264;28;20450;-69
2022/10/12 08:21:53;;;;;;;44.93;20.37;;;;;;;;;;5134300;28;20404;-69
2022/10/12 08:24:19;;;;;;;47.53;20.30;;;;;;;;;;5134196;28;20785;-70
2022/10/12 08:26:45;;;;;;;36.33;18.47;;;;;;;;;;5134143;28;20490;-70
2022/10/12 08:29:11;;;;;;;37.13;18.80;;;;;;;;;;5134033;28;20495;-70
2022/10/12 08:31:37;;;;;;;43.10;19.20;;;;;;;;;;5134198;28;20410;-70
2022/10/12 08:37:06;;;;;;;36.03;16.73;;;;;;;;;;5132159;22;20975;-70
2022/10/12 08:39:32;;;;;;;38.00;18.07;;;;;;;;;;5073097;28;20443;-69
2022/10/12 08:42:17;;;;;;;33.20;17.90;;;;;;;;;;5071243;28;20416;-70
2022/10/12 08:47:32;;;;;;;32.57;16.83;;;;;;;;;;5233852;22;20636;-69
2022/10/12 08:49:59;;;;;;;28.80;17.60;;;;;;;;;;5031026;28;20782;-69
2022/10/12 08:52:28;;;;;;;114.63;83.90;;;;;;;;;;5031545;28;20432;-70
2022/10/12 08:54:55;;;;;;;26.70;17.77;;;;;;;;;;5032384;28;20947;-70
2022/10/12 08:57:21;;;;;;;28.13;17.40;;;;;;;;;;5032263;28;20473;-69
2022/10/12 08:59:47;;;;;;;24.70;16.07;;;;;;;;;;5032815;28;20419;-69
2022/10/12 09:02:22;;;;;;;29.07;15.40;;;;;;;;;;5030746;28;20426;-69
2022/10/12 09:04:47;;;;;;;26.47;15.90;;;;;;;;;;5032156;28;20407;-69
2022/10/12 09:07:13;;;;;;;29.00;16.43;;;;;;;;;;5032075;28;20939;-69
2022/10/12 09:09:55;;;;;;;21.03;13.93;;;;;;;;;;5032740;28;21006;-70
2022/10/12 09:12:27;;;;;;;34.00;16.70;;;;;;;;;;5032354;28;20922;-70
2022/10/12 09:14:56;;;;;;;28.40;15.67;;;;;;;;;;5034007;28;20960;-69
2022/10/12 09:17:28;;;;;;;23.90;14.70;;;;;;;;;;5036211;28;20449;-68
2022/10/12 09:20:00;;;;;;;22.20;13.90;;;;;;;;;;5036183;28;20402;-69
2022/10/12 09:22:27;;;;;;;20.60;14.20;;;;;;;;;;5035974;28;20841;-69
2022/10/12 09:24:53;;;;;;;22.13;13.77;;;;;;;;;;5034860;28;20423;-70
2022/10/12 09:27:21;;;;;;;20.23;13.13;;;;;;;;;;5035878;28;20412;-70
2022/10/12 09:29:47;;;;;;;26.37;14.83;;;;;;;;;;5036421;28;20561;-69
2022/10/12 09:32:19;;;;;;;26.60;14.20;;;;;;;;;;5035548;28;20419;-69
2022/10/12 09:34:46;;;;;;;19.37;13.37;;;;;;;;;;5035999;28;20463;-68
2022/10/12 09:37:14;;;;;;;27.23;12.50;;;;;;;;;;5035806;28;20426;-69
2022/10/12 09:39:40;;;;;;;36.00;20.87;;;;;;;;;;5035384;28;20447;-69
2022/10/12 09:42:08;;;;;;;20.87;13.70;;;;;;;;;;5035542;28;20451;-70
2022/10/12 09:44:38;;;;;;;20.33;13.50;;;;;;;;;;5035586;28;20430;-69
2022/10/12 09:47:06;;;;;;;20.53;14.17;;;;;;;;;;5035615;28;20474;-70
2022/10/12 09:49:41;;;;;;;26.73;15.43;;;;;;;;;;5035501;28;20811;-68
2022/10/12 09:52:07;;;;;;;36.87;14.67;;;;;;;;;;5035307;28;20407;-68
2022/10/12 09:54:33;;;;;;;17.30;13.20;;;;;;;;;;5035375;28;20472;-71
2022/10/12 09:56:59;;;;;;;25.13;12.53;;;;;;;;;;5035630;28;20490;-67
2022/10/12 09:59:31;;;;;;;21.80;12.93;;;;;;;;;;5035433;28;20410;-67
2022/10/12 10:02:10;;;;;;;23.53;13.27;;;;;;;;;;5035383;28;20420;-67
2022/10/12 10:04:36;;;;;;;25.87;13.70;;;;;;;;;;5035209;28;20417;-67
2022/10/12 10:07:20;;;;;;;16.17;13.43;;;;;;;;;;5035646;28;20535;-68
2022/10/12 10:09:47;;;;;;;27.53;13.43;;;;;;;;;;5035754;28;20427;-70
2022/10/12 10:12:21;;;;;;;18.67;12.60;;;;;;;;;;5035368;28;20404;-71
2022/10/12 10:14:48;;;;;;;22.40;12.30;;;;;;;;;;5035522;28;20871;-70
2022/10/12 10:17:15;;;;;;;19.80;13.23;;;;;;;;;;5035271;28;20407;-70
2022/10/12 10:19:47;;;;;;;21.87;14.20;;;;;;;;;;5035152;28;20406;-69
2022/10/12 10:22:13;;;;;;;23.13;13.23;;;;;;;;;;5035474;28;20408;-70
2022/10/12 10:24:39;;;;;;;18.20;11.87;;;;;;;;;;5035112;28;20789;-70
2022/10/12 10:27:06;;;;;;;26.07;12.83;;;;;;;;;;5035042;28;20404;-70
2022/10/12 10:29:32;;;;;;;19.57;12.00;;;;;;;;;;5035077;28;20470;-70
2022/10/12 10:32:10;;;;;;;16.47;11.20;;;;;;;;;;5034915;28;20426;-70
2022/10/12 10:34:37;;;;;;;20.97;11.63;;;;;;;;;;5035135;28;20528;-70
2022/10/12 10:37:04;;;;;;;19.30;12.20;;;;;;;;;;5033617;28;20561;-70
2022/10/12 10:39:56;;;;;;;18.73;12.80;;;;;;;;;;5035024;28;20906;-70
2022/10/12 10:42:27;;;;;;;14.23;11.17;;;;;;;;;;5032911;28;20421;-70
2022/10/12 10:44:57;;;;;;;18.33;12.13;;;;;;;;;;5034748;28;20407;-70
2022/10/12 10:47:22;;;;;;;18.10;12.07;;;;;;;;;;5034607;28;20558;-69
2022/10/12 10:49:51;;;;;;;17.47;11.63;;;;;;;;;;5034650;28;20422;-70
2022/10/12 10:52:21;;;;;;;19.17;12.73;;;;;;;;;;5034646;28;20444;-70
2022/10/12 10:54:48;;;;;;;22.13;12.90;;;;;;;;;;5034509;28;20555;-69
2022/10/12 10:57:16;;;;;;;16.67;12.13;;;;;;;;;;5034555;28;20398;-70
2022/10/12 10:59:54;;;;;;;22.07;11.30;;;;;;;;;;5034476;28;20553;-70
2022/10/12 11:02:27;;;;;;;18.13;12.03;;;;;;;;;;5034111;28;20432;-70
2022/10/12 11:04:57;;;;;;;19.60;12.83;;;;;;;;;;5034265;28;20453;-69
2022/10/12 11:07:49;;;;;;;19.20;11.03;;;;;;;;;;5034366;28;20500;-68
2022/10/12 11:10:29;;;;;;;21.47;11.83;;;;;;;;;;5032166;28;20448;-68
2022/10/12 11:13:14;;;;;;;18.30;12.30;;;;;;;;;;5034149;28;20789;-69
2022/10/12 11:15:58;;;;;;;25.90;12.83;;;;;;;;;;5034066;28;20477;-68
2022/10/12 11:18:33;;;;;;;20.43;12.60;;;;;;;;;;5034128;28;20488;-69
2022/10/12 11:21:02;;;;;;;25.57;12.63;;;;;;;;;;5034213;28;20442;-69
2022/10/12 11:23:43;;;;;;;16.50;11.80;;;;;;;;;;5034096;28;20404;-67
2022/10/12 11:26:12;;;;;;;20.13;12.10;;;;;;;;;;5033922;28;20764;-68
2022/10/12 11:28:38;;;;;;;24.13;10.97;;;;;;;;;;5033960;28;20524;-68
2022/10/12 11:31:06;;;;;;;17.50;11.00;;;;;;;;;;5033794;28;20453;-67
2022/10/12 11:33:39;;;;;;;15.33;11.10;;;;;;;;;;5034599;28;20562;-68
2022/10/12 11:36:07;;;;;;;25.43;10.00;;;;;;;;;;5032472;28;20485;-69
2022/10/12 11:38:35;;;;;;;21.87;11.30;;;;;;;;;;5031936;28;20431;-68
2022/10/12 11:41:13;;;;;;;22.23;12.00;;;;;;;;;;5031405;28;20417;-68
2022/10/12 11:43:48;;;;;;;19.00;11.47;;;;;;;;;;5033509;28;20426;-67
2022/10/12 11:46:16;;;;;;;22.93;10.63;;;;;;;;;;5031725;28;20500;-68
2022/10/12 11:48:56;;;;;;;23.83;11.07;;;;;;;;;;5033589;28;20446;-69
2022/10/12 11:51:21;;;;;;;16.40;10.77;;;;;;;;;;5033581;28;20496;-68
2022/10/12 11:54:07;;;;;;;19.93;12.33;;;;;;;;;;5033739;28;21031;-70
2022/10/12 11:56:36;;;;;;;15.03;11.27;;;;;;;;;;5033616;28;20513;-70
2022/10/12 11:59:09;;;;;;;20.27;12.00;;;;;;;;;;5033514;28;20407;-70
2022/10/12 12:01:54;;;;;;;16.80;12.57;;;;;;;;;;5033411;28;20413;-72
2022/10/12 12:04:28;;;;;;;22.23;13.93;;;;;;;;;;5033443;28;20824;-69
2022/10/12 12:06:59;;;;;;;28.93;21.50;;;;;;;;;;5033439;28;20413;-69
2022/10/12 12:09:31;;;;;;;20.37;11.30;;;;;;;;;;5033492;28;20433;-71
2022/10/12 12:12:15;;;;;;;20.27;10.60;;;;;;;;;;5033400;28;20404;-71
2022/10/12 12:14:53;;;;;;;27.00;10.33;;;;;;;;;;5033292;28;20461;-69
2022/10/12 12:17:19;;;;;;;27.40;10.83;;;;;;;;;;5033277;28;20516;-70
2022/10/12 12:19:45;;;;;;;13.03;9.90;;;;;;;;;;5033405;28;20489;-71
2022/10/12 12:22:11;;;;;;;18.17;10.47;;;;;;;;;;5033294;28;20525;-70
2022/10/12 12:24:37;;;;;;;21.60;10.87;;;;;;;;;;5033471;28;20897;-70
2022/10/12 12:27:03;;;;;;;16.93;9.87;;;;;;;;;;5033162;28;20500;-70
2022/10/12 12:29:29;;;;;;;20.53;10.23;;;;;;;;;;5033233;28;20417;-70
2022/10/12 12:31:59;;;;;;;17.43;9.80;;;;;;;;;;5033172;28;20421;-70
2022/10/12 12:34:25;;;;;;;20.77;9.90;;;;;;;;;;5033474;28;20808;-70
2022/10/12 12:36:52;;;;;;;22.37;9.17;;;;;;;;;;5033220;28;20452;-69
2022/10/12 12:39:24;;;;;;;16.67;8.50;;;;;;;;;;5033200;28;20401;-70
2022/10/12 12:42:00;;;;;;;13.77;9.20;;;;;;;;;;5033148;28;20786;-71
2022/10/12 12:44:41;;;;;;;15.70;9.77;;;;;;;;;;5033172;28;20409;-70
2022/10/12 12:47:08;;;;;;;17.13;10.43;;;;;;;;;;5032939;28;20610;-70
2022/10/12 12:49:45;;;;;;;16.83;9.73;;;;;;;;;;5034197;28;20402;-71
2022/10/12 12:52:18;;;;;;;17.23;10.10;;;;;;;;;;5036948;28;20420;-69
2022/10/12 12:54:51;;;;;;;13.20;9.47;;;;;;;;;;5036804;28;21039;-70
2022/10/12 12:57:23;;;;;;;15.20;10.10;;;;;;;;;;5036747;28;20470;-70
2022/10/12 13:00:08;;;;;;;15.03;9.20;;;;;;;;;;5036780;28;20434;-68
2022/10/12 13:03:00;;;;;;;12.70;9.10;;;;;;;;;;5035314;28;20418;-70
2022/10/12 13:05:44;;;;;;;16.40;9.67;;;;;;;;;;5036462;28;20461;-70
2022/10/12 13:08:29;;;;;;;19.50;10.57;;;;;;;;;;5035331;28;20425;-70
2022/10/12 13:10:58;;;;;;;14.80;9.83;;;;;;;;;;5036471;28;20508;-69
2022/10/12 13:13:31;;;;;;;15.77;9.10;;;;;;;;;;5036218;28;20926;-70
2022/10/12 13:16:09;;;;;;;20.90;10.70;;;;;;;;;;5034851;28;20478;-71
2022/10/12 13:18:44;;;;;;;17.40;9.20;;;;;;;;;;5036407;28;20409;-69
2022/10/12 13:21:14;;;;;;;13.57;8.97;;;;;;;;;;5036350;28;20412;-69
2022/10/12 13:23:40;;;;;;;12.50;9.27;;;;;;;;;;5036287;28;20490;-69
2022/10/12 13:26:07;;;;;;;15.83;8.93;;;;;;;;;;5034997;28;20457;-70
2022/10/12 13:28:35;;;;;;;17.73;10.20;;;;;;;;;;5036208;28;20489;-69
2022/10/12 13:31:04;;;;;;;17.57;7.63;;;;;;;;;;5036177;28;20463;-70
2022/10/12 13:33:50;;;;;;;18.37;10.00;;;;;;;;;;5036176;28;20463;-70
2022/10/12 13:36:16;;;;;;;17.70;10.00;;;;;;;;;;5035865;28;20479;-70
2022/10/12 13:38:42;;;;;;;19.60;9.30;;;;;;;;;;5034711;28;20789;-70
2022/10/12 13:41:10;;;;;;;17.73;9.87;;;;;;;;;;5034483;28;20812;-70
2022/10/12 13:43:42;;;;;;;16.83;8.63;;;;;;;;;;5035812;28;20401;-70
2022/10/12 13:46:10;;;;;;;12.27;8.83;;;;;;;;;;5035829;28;20470;-70
2022/10/12 13:48:36;;;;;;;16.67;8.67;;;;;;;;;;5035764;28;20972;-69
2022/10/12 13:51:04;;;;;;;13.73;8.90;;;;;;;;;;5035638;28;20419;-69
2022/10/12 13:53:35;;;;;;;13.57;8.50;;;;;;;;;;5035983;28;20877;-69
2022/10/12 13:56:03;;;;;;;15.30;9.37;;;;;;;;;;5035545;28;20466;-69
2022/10/12 13:58:32;;;;;;;14.13;8.90;;;;;;;;;;5035621;28;20453;-69
2022/10/12 14:00:58;;;;;;;10.03;7.50;;;;;;;;;;5035106;28;20448;-69
2022/10/12 14:03:35;;;;;;;16.77;8.87;;;;;;;;;;5035543;28;20757;-69
2022/10/12 14:06:01;;;;;;;17.40;10.60;;;;;;;;;;5035463;28;20897;-70
2022/10/12 14:08:27;;;;;;;12.67;8.53;;;;;;;;;;5033958;28;20458;-70
2022/10/12 14:10:56;;;;;;;12.63;9.40;;;;;;;;;;5035439;28;20442;-69
2022/10/12 14:13:25;;;;;;;15.10;8.67;;;;;;;;;;5035313;28;20407;-69
2022/10/12 14:15:51;;;;;;;15.70;9.20;;;;;;;;;;5033947;28;20573;-69
2022/10/12 14:18:34;;;;;;;11.13;8.03;;;;;;;;;;5035309;28;20765;-69
2022/10/12 14:21:24;;;;;;;21.10;9.70;;;;;;;;;;5035124;28;20407;-69
2022/10/12 14:23:54;;;;;;;14.07;9.73;;;;;;;;;;5035394;28;20482;-69
2022/10/12 14:26:28;;;;;;;17.27;8.60;;;;;;;;;;5035143;28;20414;-69
2022/10/12 14:28:55;;;;;;;22.13;8.20;;;;;;;;;;5035329;28;20463;-69
2022/10/12 14:31:39;;;;;;;14.53;9.10;;;;;;;;;;5034955;28;20423;-70
2022/10/12 14:34:24;;;;;;;17.30;8.63;;;;;;;;;;5033622;28;20417;-69
2022/10/12 14:37:03;;;;;;;15.50;8.50;;;;;;;;;;5033611;28;20426;-70
2022/10/12 14:39:30;;;;;;;17.63;8.37;;;;;;;;;;5034945;28;20401;-70